AirNav   ProFlight Series 2 Aviation Headset
 
 966 users online  

0PS5 Valley Industrial Properties LLC Heliport
East Bangor, Pennsylvania, USA

GOING TO EAST BANGOR?


FAA INFORMATION EFFECTIVE 18 JUNE 2020

Location

FAA Identifier: 0PS5
Lat/Long: 40-52-45.3450N 075-11-33.6430W
40-52.755750N 075-11.560717W
40.8792625,-75.1926786
(estimated)
Elevation: 660 ft. / 201 m (estimated)
Variation: 12W (1980)
Time zone: UTC -4 (UTC -5 during Standard Time)
Zip code: 18013

Heliport Operations

Heliport use: Private use, PERSONAL USE.
Activation date: 11/1986
Control tower: no
ARTCC: NEW YORK CENTER
FSS: WILLIAMSPORT FLIGHT SERVICE STATION
Attendance: UNATNDD
Wind indicator: lighted
Segmented circle: no

Heliport Communications

WX ASOS at ABE (18 nm SW): 126.975 (610-266-3579)
WX ASOS at MPO (18 nm NW): 120.275 (570-839-1584)

Nearby radio navigation aids

VOR radial/distance  VOR name  Freq  Var
FJCr062/15.0ALLENTOWN VORTAC117.5010W
STWr256/16.3STILLWATER VOR/DME109.6011W
BWZr297/17.5BROADWAY VOR/DME114.2011W
SBJr321/27.1SOLBERG VOR/DME112.9010W
ETXr060/28.6EAST TEXAS VOR/DME110.2009W
SAXr260/31.7SPARTA VORTAC115.7011W
LVZr146/32.6WILKES-BARRE VORTAC111.6010W
ARDr351/39.7YARDLEY VOR/DME108.2010W

 
NDB name  Hdg/Dist  Freq  Var  ID
CHATHAM296/35.625413WCAT -.-. .- -

Heliport Services

Runway Information

Helipad H1

Dimensions: 30 x 30 ft. / 9 x 9 m
Surface: concrete
Runway edge lights: FLD
Latitude: 40-52.755750N
Longitude: 075-11.560717W
Elevation: 660.0 ft.
Traffic pattern: leftleft

Heliport Ownership and Management from official FAA records

Ownership: Privately-owned
Owner: VALLEY INDUSTRIAL PROPERTIES LLC
P. O. BOX 143
OREFIELD, PA 18069
Phone 610-262-3804
Manager: STEVE KOLBE
5101 BEEKMANTOWN RD
WHITEHALL, PA 18052
Phone 610-262-3804

Heliport Operational Statistics

Aircraft based on the field: 1
Helicopters: 1
    

Additional Remarks

FOR CD CTC ALLENTOWN APCH AT 800-728-6322.

Instrument Procedures

There are no published instrument procedures at 0PS5.

Some nearby airports with instrument procedures:

N43 - Braden Airpark (9 nm S)
N53 - Stroudsburg-Pocono Airport (10 nm N)
1N7 - Blairstown Airport (10 nm NE)
KABE - Lehigh Valley International Airport (18 nm SW)
KMPO - Pocono Mountains Municipal Airport (18 nm NW)
N85 - Alexandria Airport (19 nm SE)
 
Loc | Ops | Rwys | IFR | FBO | Links
Com | Nav | Svcs | Stats | Notes
Area around 0PS5 (Valley Industrial Properties LLC Heliport)
 
Road maps at: MapQuest Bing Google
 
Aerial photo
No photo
 
Sectional chart

 
Airport distance calculator
Flying to Valley Industrial Properties LLC Heliport? Find the distance to fly.

From to 0PS5

Sunrise and sunset
Times for 02-Jul-2020
 Local
(UTC-4)
 Zulu
(UTC)
Morning civil twilight05:0109:01
Sunrise05:3509:35
Sunset20:3500:35
Evening civil twilight21:0801:08

Current date and time
Zulu (UTC)  02-Jul-2020 23:45:13
Local (UTC-4)  02-Jul-2020 19:45:13
 
METAR
KMPO 
18nm NW 
022253Z AUTO 31010KT 10SM CLR 27/16 A2991 RMK AO2 SLP114 T02670156
KABE 
18nm SW 
022251Z 31005KT 10SM CLR 31/18 A2981 RMK AO2 SLP093 T03060178
K12N 
22nm E 
022254Z AUTO 00000KT 28/21 A2982 RMK AO1 SLP091 T02780211
KXLL 
23nm SW 
022335Z AUTO 30003KT 10SM CLR 31/18 A2984 RMK AO2
K22N 
26nm W 
022335Z AUTO 00000KT 10SM CLR 30/19 A2985 RMK AO2
KUKT 
28nm S 
022340Z AUTO 00000KT 10SM CLR 30/18 A2984 RMK A01
KSMQ 
29nm SE 
ASOS 120.60 908-722-2139
022253Z AUTO 00000KT 10SM FEW100 SCT120 28/19 A2977 RMK AO2 RAB41E51 SLP082 P0000 T02830194
KCKZ 
30nm S 
022335Z AUTO 30005KT 10SM CLR 30/17 A2984 RMK AO2
KFWN 
32nm NE 
022253Z AUTO 00000KT 10SM CLR 27/21 A2981 RMK AO2 SLP090 T02720206
KDYL 
33nm S 
022254Z AUTO 35005KT 10SM FEW080 SCT110 33/16 A2980 RMK AO2 SLP085 T03330161
TAF
KABE 
18nm SW 
021720Z 0218/0318 34009KT P6SM SCT060 FM030000 32006KT P6SM SCT200 FM031400 32005KT P6SM SCT100
NOTAMs
Click for the latest NOTAMs
NOTAMs are issued by the DoD/FAA and will open in a separate window not controlled by AirNav.

 

 
 

Would you like to see your business listed on this page?

 If your business provides an interesting product or service to pilots, flight crews, aircraft, or users of the Valley Industrial Properties LLC Heliport, you should consider listing it here.  To start the listing process, click on the button below
 
Add a business
 

Other Pages about Valley Industrial Properties LLC Heliport

Update a link
 
Copyright © AirNav, LLC. All rights reserved. Privacy Policy  Contact